createdAt,value
2023-05-10T00:03:51.310Z,96793.41
2023-05-10T00:07:54.250Z,96790.63
2023-05-10T00:11:55.776Z,96785.69
2023-05-10T00:15:57.348Z,96777.75
2023-05-10T00:19:58.921Z,96778.84
2023-05-10T00:24:01.834Z,96772.94
2023-05-10T00:28:03.553Z,96774.25
2023-05-10T00:32:05.579Z,96772.19
2023-05-10T00:36:08.014Z,96772.53
2023-05-10T00:40:12.081Z,96772.78
2023-05-10T00:44:13.632Z,96771.16
2023-05-10T00:48:15.304Z,96765.22
2023-05-10T00:52:16.947Z,96761.19
2023-05-10T00:56:20.056Z,96766.31
2023-05-10T01:00:21.474Z,96760.94
2023-05-10T01:04:23.031Z,96768.94
2023-05-10T01:08:24.977Z,96769.13
2023-05-10T01:12:27.991Z,96766.19
2023-05-10T01:16:33.291Z,96756.56
2023-05-10T01:20:41.488Z,96760.31
2023-05-10T01:25:23.595Z,96766.06
2023-05-10T01:29:48.976Z,96761.50
2023-05-10T01:33:58.639Z,96763.38
2023-05-10T01:38:08.814Z,96764.94
2023-05-10T01:42:13.817Z,96776.19
2023-05-10T01:46:18.655Z,96774.31
2023-05-10T01:50:28.133Z,96773.13
2023-05-10T01:54:30.566Z,96769.72
2023-05-10T01:58:34.614Z,96772.00
2023-05-10T02:02:38.626Z,96771.63
2023-05-10T02:06:43.432Z,96771.25
2023-05-10T02:10:46.826Z,96770.59
2023-05-10T02:14:48.662Z,96772.00
2023-05-10T02:18:52.572Z,96763.47
2023-05-10T02:22:56.940Z,96769.81
2023-05-10T02:26:59.513Z,96762.53
2023-05-10T02:31:01.871Z,96767.34
2023-05-10T02:35:04.680Z,96763.09
2023-05-10T02:39:08.719Z,96770.09
2023-05-10T02:43:13.816Z,96773.06
2023-05-10T02:47:15.513Z,96768.06
2023-05-10T02:51:19.138Z,96772.81
2023-05-10T02:55:26.559Z,96767.81
2023-05-10T02:59:28.536Z,96765.75
2023-05-10T03:03:30.107Z,96763.03
2023-05-10T03:07:31.871Z,96759.81
2023-05-10T03:11:44.093Z,96755.75
2023-05-10T03:15:55.551Z,96759.63
2023-05-10T03:19:58.714Z,96764.22
2023-05-10T03:24:06.305Z,96763.50
2023-05-10T03:28:09.938Z,96774.16
2023-05-10T03:32:11.508Z,96774.34
2023-05-10T03:36:13.014Z,96782.25
2023-05-10T03:40:14.833Z,96774.13
2023-05-10T03:44:17.811Z,96772.19
2023-05-10T03:48:19.323Z,96777.44
2023-05-10T03:52:20.822Z,96778.38
2023-05-10T03:56:22.348Z,96782.97
2023-05-10T04:00:25.679Z,96784.72
2023-05-10T04:04:27.297Z,96786.53
2023-05-10T04:08:29.036Z,96801.47
2023-05-10T04:12:30.541Z,96798.91
2023-05-10T04:16:33.411Z,96798.09
2023-05-10T04:20:34.983Z,96799.22
2023-05-10T04:24:36.479Z,96800.66
2023-05-10T04:28:37.965Z,96800.22
2023-05-10T04:32:40.909Z,96806.06
2023-05-10T04:36:42.439Z,96808.16
2023-05-10T04:40:43.990Z,96807.19
2023-05-10T04:44:45.494Z,96817.09
2023-05-10T04:48:48.575Z,96822.16
2023-05-10T04:52:49.906Z,96823.13
2023-05-10T04:56:51.422Z,96827.06
2023-05-10T05:00:52.962Z,96822.19
2023-05-10T05:04:56.701Z,96818.13
2023-05-10T05:08:58.208Z,96825.56
2023-05-10T05:12:59.754Z,96828.84
2023-05-10T05:17:01.492Z,96832.09
2023-05-10T05:21:04.360Z,96828.53
2023-05-10T05:25:06.953Z,96843.16
2023-05-10T05:29:08.454Z,96851.31
2023-05-10T05:33:10.390Z,96858.47
2023-05-10T05:37:15.041Z,96861.53
2023-05-10T05:41:16.625Z,96859.25
2023-05-10T05:45:18.554Z,96860.91
2023-05-10T05:49:20.281Z,96879.91
2023-05-10T05:53:23.287Z,96895.91
2023-05-10T05:57:24.801Z,96887.94
2023-05-10T06:01:26.358Z,96887.44
2023-05-10T06:05:27.886Z,96892.00
2023-05-10T06:09:30.734Z,96896.25
2023-05-10T06:13:32.335Z,96903.88
2023-05-10T06:17:33.992Z,96905.97
2023-05-10T06:21:35.527Z,96908.94
2023-05-10T06:25:38.396Z,96913.47
2023-05-10T06:29:39.922Z,96913.28
2023-05-10T06:33:41.446Z,96912.00
2023-05-10T06:37:42.966Z,96918.31
2023-05-10T06:41:45.818Z,96921.25
2023-05-10T06:45:48.494Z,96920.97
2023-05-10T06:49:50.030Z,96924.22
2023-05-10T06:53:51.562Z,96933.03
2023-05-10T06:57:54.531Z,96929.03
2023-05-10T07:01:56.027Z,96940.81
2023-05-10T07:06:01.611Z,96943.31
2023-05-10T07:10:03.365Z,96934.16
2023-05-10T07:14:06.233Z,96943.34
2023-05-10T07:18:07.879Z,96940.03
2023-05-10T07:22:09.488Z,96943.72
2023-05-10T07:26:10.988Z,96950.81
2023-05-10T07:30:14.586Z,96958.59
2023-05-10T07:34:16.137Z,96957.00
2023-05-10T07:38:17.621Z,96962.94
2023-05-10T07:42:19.536Z,96971.69
2023-05-10T07:46:22.439Z,96974.69
2023-05-10T07:50:24.035Z,96980.94
2023-05-10T07:54:25.616Z,96979.94
2023-05-10T07:58:27.699Z,96980.75
2023-05-10T08:02:30.717Z,96977.06
2023-05-10T08:06:32.139Z,96983.31
2023-05-10T08:10:33.716Z,96980.16
2023-05-10T08:14:35.278Z,96977.84
2023-05-10T08:18:38.326Z,96989.19
2023-05-10T08:22:39.672Z,96985.28
2023-05-10T08:26:41.363Z,96984.50
2023-05-10T08:30:42.866Z,96979.84
2023-05-10T08:34:45.726Z,96989.56
2023-05-10T08:38:47.229Z,96981.06
2023-05-10T08:42:55.184Z,97001.41
2023-05-10T08:46:58.332Z,97001.53
2023-05-10T08:51:01.323Z,97008.69
2023-05-10T08:55:02.955Z,96997.59
2023-05-10T08:59:04.518Z,97000.00
2023-05-10T09:03:06.732Z,97008.44
2023-05-10T09:07:09.593Z,97006.25
2023-05-10T09:11:12.700Z,97002.97
2023-05-10T09:15:16.490Z,97012.75
2023-05-10T09:19:18.548Z,97015.44
2023-05-10T09:23:21.423Z,97011.72
2023-05-10T09:27:27.857Z,97013.56
2023-05-10T09:31:46.436Z,97017.06
2023-05-10T09:35:48.161Z,97013.69
2023-05-10T09:39:55.415Z,97018.44
2023-05-10T09:43:57.196Z,97021.22
2023-05-10T09:47:59.860Z,97024.28
2023-05-10T09:52:02.806Z,97028.06
2023-05-10T09:56:05.928Z,97021.69
2023-05-10T10:00:07.903Z,97025.44
2023-05-10T10:04:10.587Z,97026.50
2023-05-10T10:08:13.396Z,97025.88
2023-05-10T10:12:16.278Z,97021.91
2023-05-10T10:16:17.777Z,97023.59
2023-05-10T10:20:20.871Z,97020.84
2023-05-10T10:24:22.388Z,97027.72
2023-05-10T10:28:36.952Z,97017.88
2023-05-10T10:32:55.411Z,97012.31
2023-05-10T10:36:58.041Z,97014.19
2023-05-10T10:41:04.044Z,97013.56
2023-05-10T10:45:16.400Z,97009.88
2023-05-10T10:49:18.114Z,97007.88
2023-05-10T10:53:19.680Z,97001.31
2023-05-10T10:57:21.274Z,96997.44
2023-05-10T11:01:24.151Z,96994.00
2023-05-10T11:05:34.951Z,96984.44
2023-05-10T11:09:40.727Z,96986.19
2023-05-10T11:13:43.950Z,96983.94
2023-05-10T11:17:48.676Z,96985.94
2023-05-10T11:21:52.092Z,96986.91
2023-05-10T11:25:53.676Z,96980.66
2023-05-10T11:29:55.190Z,96982.91
2023-05-10T11:33:59.827Z,96984.59
2023-05-10T11:38:01.326Z,96985.03
2023-05-10T11:42:03.022Z,96986.97
2023-05-10T11:46:05.278Z,96983.34
2023-05-10T11:50:09.345Z,96987.84
2023-05-10T11:54:12.343Z,96993.13
2023-05-10T11:58:13.711Z,96994.88
2023-05-10T12:02:15.375Z,96992.16
2023-05-10T12:06:19.005Z,96997.47
2023-05-10T12:10:27.225Z,96997.28
2023-05-10T12:14:28.719Z,96998.38
2023-05-10T12:18:30.230Z,97003.13
2023-05-10T12:22:34.601Z,97029.03
2023-05-10T12:26:36.212Z,97036.31
2023-05-10T12:30:38.315Z,97046.72
2023-05-10T12:34:39.883Z,97044.94
2023-05-10T12:38:44.460Z,97045.44
2023-05-10T12:42:46.053Z,97031.47
2023-05-10T12:46:47.560Z,97032.34
2023-05-10T12:50:49.109Z,97029.56
2023-05-10T12:54:51.976Z,97037.63
2023-05-10T12:58:53.454Z,97041.75
2023-05-10T13:02:55.040Z,97052.47
2023-05-10T13:06:56.609Z,97061.19
2023-05-10T13:10:59.678Z,97054.50
2023-05-10T13:15:01.002Z,97050.31
2023-05-10T13:19:02.608Z,97046.09
2023-05-10T13:23:04.233Z,97046.25
2023-05-10T13:27:07.526Z,97033.75
2023-05-10T13:31:09.079Z,97035.59
2023-05-10T13:35:10.646Z,97040.91
2023-05-10T13:39:12.164Z,97036.41
2023-05-10T13:43:15.026Z,97032.94
2023-05-10T13:47:16.644Z,97020.78
2023-05-10T13:51:18.137Z,97030.00
2023-05-10T13:55:19.933Z,97024.47
2023-05-10T13:59:23.007Z,97027.41
2023-05-10T14:03:24.537Z,97028.66
2023-05-10T14:07:26.044Z,97022.34
2023-05-10T14:11:27.524Z,97025.75
2023-05-10T14:15:30.347Z,97024.56
2023-05-10T14:19:31.858Z,97022.59
2023-05-10T14:23:33.369Z,97016.81
2023-05-10T14:27:34.846Z,97021.72
2023-05-10T14:31:37.685Z,97024.06
2023-05-10T14:35:39.179Z,97021.91
2023-05-10T14:39:40.668Z,97027.56
2023-05-10T14:43:42.246Z,97033.44
2023-05-10T14:47:45.075Z,97042.63
2023-05-10T14:51:46.585Z,97035.63
2023-05-10T14:55:48.092Z,97032.13
2023-05-10T14:59:49.576Z,97032.47
2023-05-10T15:03:52.957Z,97045.03
2023-05-10T15:07:55.003Z,97044.91
2023-05-10T15:11:56.631Z,97051.53
2023-05-10T15:15:59.292Z,97060.91
2023-05-10T15:20:02.374Z,97058.72
2023-05-10T15:24:03.907Z,97058.88
2023-05-10T15:28:05.909Z,97051.69
2023-05-10T15:32:07.415Z,97061.84
2023-05-10T15:36:10.631Z,97066.50
2023-05-10T15:40:12.638Z,97067.56
2023-05-10T15:44:14.204Z,97064.09
2023-05-10T15:48:15.701Z,97066.38
2023-05-10T15:52:18.537Z,97072.59
2023-05-10T15:56:20.058Z,97076.25
2023-05-10T16:00:21.585Z,97066.28
2023-05-10T16:04:23.368Z,97073.25
2023-05-10T16:08:26.217Z,97071.34
2023-05-10T16:12:28.241Z,97073.84
2023-05-10T16:16:29.795Z,97076.63
2023-05-10T16:20:32.602Z,97080.13
2023-05-10T16:24:35.436Z,97082.22
2023-05-10T16:28:36.928Z,97088.84
2023-05-10T16:32:38.457Z,97088.84
2023-05-10T16:36:39.998Z,97091.78
2023-05-10T16:40:42.836Z,97092.47
2023-05-10T16:44:44.341Z,97087.78
2023-05-10T16:48:46.025Z,97090.00
2023-05-10T16:52:47.646Z,97090.75
2023-05-10T16:56:50.511Z,97085.63
2023-05-10T17:00:52.046Z,97093.84
2023-05-10T17:04:53.958Z,97101.81
2023-05-10T17:08:55.438Z,97105.75
2023-05-10T17:12:58.259Z,97109.16
2023-05-10T17:16:59.869Z,97116.06
2023-05-10T17:21:01.442Z,97122.44
2023-05-10T17:25:03.132Z,97110.91
2023-05-10T17:29:05.977Z,97111.72
2023-05-10T17:33:07.503Z,97117.69
2023-05-10T17:37:10.172Z,97123.25
2023-05-10T17:41:11.681Z,97123.25
2023-05-10T17:45:15.021Z,97120.16
2023-05-10T17:49:16.627Z,97124.78
2023-05-10T17:53:18.230Z,97125.28
2023-05-10T17:57:19.721Z,97133.00
2023-05-10T18:01:22.622Z,97145.22
2023-05-10T18:05:24.500Z,97157.53
2023-05-10T18:09:26.438Z,97154.34
2023-05-10T18:13:28.012Z,97160.91
2023-05-10T18:17:30.873Z,97165.47
2023-05-10T18:21:32.476Z,97165.16
2023-05-10T18:25:34.015Z,97172.50
2023-05-10T18:29:35.587Z,97171.53
2023-05-10T18:33:38.445Z,97168.09
2023-05-10T18:37:40.249Z,97170.88
2023-05-10T18:41:41.783Z,97176.91
2023-05-10T18:45:43.286Z,97174.63
2023-05-10T18:49:46.176Z,97179.34
2023-05-10T18:53:47.758Z,97184.75
2023-05-10T18:57:49.230Z,97191.91
2023-05-10T19:01:51.419Z,97189.78
2023-05-10T19:05:54.559Z,97195.19
2023-05-10T19:09:56.048Z,97189.97
2023-05-10T19:13:57.702Z,97200.53
2023-05-10T19:17:59.278Z,97204.94
2023-05-10T19:22:02.460Z,97205.25
2023-05-10T19:26:03.972Z,97208.38
2023-05-10T19:30:07.028Z,97208.06
2023-05-10T19:34:08.527Z,97212.81
2023-05-10T19:38:11.468Z,97213.41
2023-05-10T19:42:12.976Z,97217.53
2023-05-10T19:46:17.143Z,97221.91
2023-05-10T19:50:19.420Z,97218.50
2023-05-10T19:54:22.287Z,97214.91
2023-05-10T19:58:23.950Z,97217.19
2023-05-10T20:02:25.462Z,97213.78
2023-05-10T20:06:26.989Z,97222.16
2023-05-10T20:10:30.060Z,97218.34
2023-05-10T20:14:31.534Z,97214.25
2023-05-10T20:18:33.040Z,97214.91
2023-05-10T20:22:34.511Z,97221.59
2023-05-10T20:26:37.351Z,97209.69
2023-05-10T20:30:39.148Z,97214.25
2023-05-10T20:34:40.650Z,97218.66
2023-05-10T20:38:42.232Z,97209.84
2023-05-10T20:42:45.042Z,97211.81
2023-05-10T20:46:46.599Z,97201.38
2023-05-10T20:50:48.096Z,97210.00
2023-05-10T20:54:49.570Z,97209.34
2023-05-10T20:58:52.405Z,97215.38
2023-05-10T21:02:53.923Z,97214.75
2023-05-10T21:06:55.441Z,97210.97
2023-05-10T21:10:56.942Z,97209.69
2023-05-10T21:14:59.782Z,97208.06
2023-05-10T21:19:01.293Z,97214.31
2023-05-10T21:23:02.799Z,97195.78
2023-05-10T21:27:04.317Z,97204.63
2023-05-10T21:31:07.163Z,97196.00
2023-05-10T21:35:09.073Z,97201.22
2023-05-10T21:39:10.961Z,97207.88
2023-05-10T21:43:12.498Z,97207.50
2023-05-10T21:47:15.343Z,97199.84
2023-05-10T21:51:16.868Z,97202.53
2023-05-10T21:55:18.481Z,97201.63
2023-05-10T21:59:20.024Z,97197.91
2023-05-10T22:03:23.002Z,97205.75
2023-05-10T22:07:24.532Z,97195.03
2023-05-10T22:11:26.064Z,97195.16
2023-05-10T22:15:27.574Z,97195.28
2023-05-10T22:19:30.405Z,97207.59
2023-05-10T22:23:31.877Z,97192.88
2023-05-10T22:27:33.407Z,97205.28
2023-05-10T22:31:34.955Z,97199.03
2023-05-10T22:35:37.857Z,97194.88
2023-05-10T22:39:39.328Z,97197.78
2023-05-10T22:43:40.810Z,97191.88
2023-05-10T22:47:42.297Z,97188.75
2023-05-10T22:51:45.157Z,97195.78
2023-05-10T22:55:46.715Z,97189.25
2023-05-10T22:59:48.378Z,97188.28
2023-05-10T23:03:50.239Z,97196.41
2023-05-10T23:07:53.121Z,97189.94
2023-05-10T23:11:54.652Z,97206.22
2023-05-10T23:15:56.340Z,97194.63
2023-05-10T23:19:58.073Z,97195.06
2023-05-10T23:24:00.951Z,97204.13
2023-05-10T23:28:02.543Z,97199.19
2023-05-10T23:32:04.352Z,97200.47
2023-05-10T23:36:06.215Z,97197.44
2023-05-10T23:40:10.449Z,97195.56
2023-05-10T23:44:11.942Z,97194.91
2023-05-10T23:48:13.429Z,97193.84
2023-05-10T23:52:14.911Z,97194.06
2023-05-10T23:56:17.741Z,97194.69
